createdAt,value
2018-09-11T00:18:14.767Z,0.0
2018-09-11T00:28:44.428Z,0.0
2018-09-11T00:39:16.018Z,0.0
2018-09-11T00:49:29.487Z,0.0
2018-09-11T00:59:42.694Z,0.0
2018-09-11T01:09:55.860Z,0.0
2018-09-11T01:20:09.643Z,0.0
2018-09-11T01:30:54.559Z,0.0
2018-09-11T01:41:08.081Z,0.0
2018-09-11T01:51:53.826Z,0.0
2018-09-11T02:02:41.455Z,0.0
2018-09-11T02:12:57.172Z,0.0
2018-09-11T03:00:02.369Z,0.0
2018-09-11T03:10:16.666Z,0.0
2018-09-11T06:40:42.665Z,2348.0
2018-09-11T07:43:44.616Z,4612.0
2018-09-11T07:54:11.040Z,5064.0
2018-09-11T08:04:25.129Z,4664.0
2018-09-11T08:15:29.533Z,7740.0
2018-09-11T08:49:13.409Z,10292.0
2018-09-11T09:00:02.591Z,17088.0
2018-09-11T09:10:14.772Z,17312.0
2018-09-11T09:20:28.727Z,13820.0
2018-09-11T09:32:23.907Z,11588.0
2018-09-11T09:54:49.348Z,15168.0
2018-09-11T10:05:03.649Z,45152.0
2018-09-11T10:15:17.664Z,73888.0
2018-09-11T10:25:31.807Z,72000.0
2018-09-11T10:39:30.731Z,71072.0
2018-09-11T10:50:16.399Z,99008.0
2018-09-11T11:00:27.671Z,65792.0
2018-09-11T11:10:52.724Z,71552.0
2018-09-11T11:36:21.140Z,50560.0
2018-09-11T11:46:33.239Z,75200.0
2018-09-11T12:13:18.959Z,65216.0
2018-09-11T12:25:57.596Z,76544.0
2018-09-11T12:56:16.551Z,22656.0
2018-09-11T13:09:07.584Z,34848.0
2018-09-11T13:39:13.779Z,13064.0
2018-09-11T14:05:31.740Z,13880.0
2018-09-11T14:16:16.590Z,12760.0
2018-09-11T14:27:59.091Z,9308.0
2018-09-11T14:40:32.971Z,8640.0
2018-09-11T14:51:10.759Z,9940.0
2018-09-11T15:01:24.895Z,6428.0
2018-09-11T15:14:52.860Z,5712.0
2018-09-11T15:26:33.457Z,5688.0
2018-09-11T15:40:49.257Z,5532.0
2018-09-11T16:04:50.153Z,4984.0
2018-09-11T16:16:11.913Z,3012.0
2018-09-11T16:26:46.297Z,2016.0
2018-09-11T16:37:00.731Z,1772.0
2018-09-11T16:47:14.907Z,1260.0
2018-09-11T16:59:59.603Z,1276.0
2018-09-11T17:41:23.841Z,152.0
2018-09-11T17:53:05.402Z,60.0
2018-09-11T18:22:07.977Z,4.0
2018-09-11T18:43:13.394Z,0.0
2018-09-11T18:53:59.675Z,0.0
2018-09-11T19:04:46.168Z,0.0
2018-09-11T19:15:11.272Z,0.0
2018-09-11T19:25:23.347Z,0.0
2018-09-11T19:45:52.236Z,0.0
2018-09-11T19:56:05.727Z,0.0
2018-09-11T20:06:53.314Z,0.0
2018-09-11T20:17:07.227Z,0.0
2018-09-11T20:28:51.006Z,0.0
2018-09-11T20:39:02.263Z,0.0
2018-09-11T21:05:09.042Z,0.0
2018-09-11T21:42:38.611Z,0.0
2018-09-11T21:56:45.167Z,0.0
2018-09-11T22:21:38.717Z,0.0
2018-09-11T22:31:52.865Z,0.0
2018-09-11T22:43:26.789Z,0.0
2018-09-11T22:53:59.673Z,0.0
2018-09-11T23:04:40.884Z,0.0
2018-09-11T23:14:55.879Z,0.0
2018-09-11T23:25:28.187Z,0.0
2018-09-11T23:35:42.371Z,0.0
2018-09-11T23:45:56.081Z,0.0
2018-09-11T23:56:09.614Z,0.0
